sensor_id;sensor_type;location;lat;lon;timestamp;P1;durP1;ratioP1;P2;durP2;ratioP2
55202;SDS011;41077;52.956;6.796;2023-06-10T00:00:42;11.02;;;5.78;;
55202;SDS011;41077;52.956;6.796;2023-06-10T00:03:09;14.75;;;5.03;;
55202;SDS011;41077;52.956;6.796;2023-06-10T00:05:35;15.85;;;5.78;;
55202;SDS011;41077;52.956;6.796;2023-06-10T00:08:03;10.38;;;6.10;;
55202;SDS011;41077;52.956;6.796;2023-06-10T00:10:35;10.50;;;5.72;;
55202;SDS011;41077;52.956;6.796;2023-06-10T00:13:02;8.60;;;5.15;;
55202;SDS011;41077;52.956;6.796;2023-06-10T00:15:29;13.13;;;5.70;;
55202;SDS011;41077;52.956;6.796;2023-06-10T00:17:55;16.27;;;7.22;;
55202;SDS011;41077;52.956;6.796;2023-06-10T00:20:21;11.05;;;5.40;;
55202;SDS011;41077;52.956;6.796;2023-06-10T00:22:51;9.15;;;4.88;;
55202;SDS011;41077;52.956;6.796;2023-06-10T00:25:18;8.75;;;5.35;;
55202;SDS011;41077;52.956;6.796;2023-06-10T00:27:44;11.63;;;6.03;;
55202;SDS011;41077;52.956;6.796;2023-06-10T00:30:10;10.77;;;5.68;;
55202;SDS011;41077;52.956;6.796;2023-06-10T00:32:36;9.25;;;5.78;;
55202;SDS011;41077;52.956;6.796;2023-06-10T00:35:06;10.07;;;6.20;;
55202;SDS011;41077;52.956;6.796;2023-06-10T00:37:32;11.60;;;6.00;;
55202;SDS011;41077;52.956;6.796;2023-06-10T00:40:01;11.25;;;5.88;;
55202;SDS011;41077;52.956;6.796;2023-06-10T00:42:27;8.30;;;5.22;;
55202;SDS011;41077;52.956;6.796;2023-06-10T00:44:54;11.18;;;5.55;;
55202;SDS011;41077;52.956;6.796;2023-06-10T00:47:20;8.88;;;5.57;;
55202;SDS011;41077;52.956;6.796;2023-06-10T00:49:47;9.55;;;6.00;;
55202;SDS011;41077;52.956;6.796;2023-06-10T00:52:13;10.63;;;5.57;;
55202;SDS011;41077;52.956;6.796;2023-06-10T00:54:40;9.82;;;5.45;;
55202;SDS011;41077;52.956;6.796;2023-06-10T00:57:07;7.30;;;5.32;;
55202;SDS011;41077;52.956;6.796;2023-06-10T00:59:33;12.65;;;5.88;;
55202;SDS011;41077;52.956;6.796;2023-06-10T01:01:59;10.38;;;6.00;;
55202;SDS011;41077;52.956;6.796;2023-06-10T01:04:27;13.60;;;5.88;;
55202;SDS011;41077;52.956;6.796;2023-06-10T01:12:01;11.68;;;6.35;;
55202;SDS011;41077;52.956;6.796;2023-06-10T01:14:28;10.13;;;5.15;;
55202;SDS011;41077;52.956;6.796;2023-06-10T01:16:56;9.52;;;5.68;;
55202;SDS011;41077;52.956;6.796;2023-06-10T01:19:23;10.40;;;5.65;;
55202;SDS011;41077;52.956;6.796;2023-06-10T01:21:50;10.68;;;5.60;;
55202;SDS011;41077;52.956;6.796;2023-06-10T01:24:16;10.27;;;5.25;;
55202;SDS011;41077;52.956;6.796;2023-06-10T01:26:44;12.60;;;5.72;;
55202;SDS011;41077;52.956;6.796;2023-06-10T01:29:13;12.00;;;6.03;;
55202;SDS011;41077;52.956;6.796;2023-06-10T01:34:14;10.63;;;5.60;;
55202;SDS011;41077;52.956;6.796;2023-06-10T01:36:43;10.93;;;6.18;;
55202;SDS011;41077;52.956;6.796;2023-06-10T01:39:10;9.90;;;5.55;;
55202;SDS011;41077;52.956;6.796;2023-06-10T01:41:36;9.07;;;5.72;;
55202;SDS011;41077;52.956;6.796;2023-06-10T01:44:03;7.75;;;5.22;;
55202;SDS011;41077;52.956;6.796;2023-06-10T01:46:29;8.55;;;5.82;;
55202;SDS011;41077;52.956;6.796;2023-06-10T01:48:55;8.25;;;5.88;;
55202;SDS011;41077;52.956;6.796;2023-06-10T01:51:21;12.65;;;5.80;;
55202;SDS011;41077;52.956;6.796;2023-06-10T01:53:47;8.98;;;5.57;;
55202;SDS011;41077;52.956;6.796;2023-06-10T01:56:13;9.63;;;6.25;;
55202;SDS011;41077;52.956;6.796;2023-06-10T01:58:43;10.55;;;5.30;;
55202;SDS011;41077;52.956;6.796;2023-06-10T02:01:09;15.80;;;6.00;;
55202;SDS011;41077;52.956;6.796;2023-06-10T02:03:35;10.60;;;6.28;;
55202;SDS011;41077;52.956;6.796;2023-06-10T02:06:01;15.38;;;6.50;;
55202;SDS011;41077;52.956;6.796;2023-06-10T02:08:27;11.07;;;5.95;;
55202;SDS011;41077;52.956;6.796;2023-06-10T02:10:53;10.65;;;6.15;;
55202;SDS011;41077;52.956;6.796;2023-06-10T02:13:19;9.38;;;6.35;;
55202;SDS011;41077;52.956;6.796;2023-06-10T02:15:46;12.48;;;6.53;;
55202;SDS011;41077;52.956;6.796;2023-06-10T02:18:12;15.10;;;6.18;;
55202;SDS011;41077;52.956;6.796;2023-06-10T02:20:38;11.18;;;6.80;;
55202;SDS011;41077;52.956;6.796;2023-06-10T02:23:04;12.45;;;7.05;;
55202;SDS011;41077;52.956;6.796;2023-06-10T02:25:30;12.10;;;6.30;;
55202;SDS011;41077;52.956;6.796;2023-06-10T02:27:56;16.65;;;6.68;;
55202;SDS011;41077;52.956;6.796;2023-06-10T02:30:22;10.73;;;6.47;;
55202;SDS011;41077;52.956;6.796;2023-06-10T02:32:48;10.88;;;5.70;;
55202;SDS011;41077;52.956;6.796;2023-06-10T02:35:15;12.45;;;6.20;;
55202;SDS011;41077;52.956;6.796;2023-06-10T02:37:42;9.57;;;6.03;;
55202;SDS011;41077;52.956;6.796;2023-06-10T02:40:08;12.32;;;6.60;;
55202;SDS011;41077;52.956;6.796;2023-06-10T02:42:35;8.55;;;5.70;;
55202;SDS011;41077;52.956;6.796;2023-06-10T02:45:01;10.32;;;6.60;;
55202;SDS011;41077;52.956;6.796;2023-06-10T02:47:27;9.65;;;6.00;;
55202;SDS011;41077;52.956;6.796;2023-06-10T02:49:53;10.23;;;6.60;;
55202;SDS011;41077;52.956;6.796;2023-06-10T02:52:20;13.30;;;6.93;;
55202;SDS011;41077;52.956;6.796;2023-06-10T02:54:46;11.85;;;6.78;;
55202;SDS011;41077;52.956;6.796;2023-06-10T02:57:12;12.70;;;6.78;;
55202;SDS011;41077;52.956;6.796;2023-06-10T02:59:39;10.52;;;6.20;;
55202;SDS011;41077;52.956;6.796;2023-06-10T03:02:06;13.70;;;6.43;;
55202;SDS011;41077;52.956;6.796;2023-06-10T03:04:32;12.15;;;6.72;;
55202;SDS011;41077;52.956;6.796;2023-06-10T03:06:58;15.40;;;5.93;;
55202;SDS011;41077;52.956;6.796;2023-06-10T03:09:28;11.65;;;6.55;;
55202;SDS011;41077;52.956;6.796;2023-06-10T03:11:54;12.52;;;6.00;;
55202;SDS011;41077;52.956;6.796;2023-06-10T03:14:20;11.38;;;6.70;;
55202;SDS011;41077;52.956;6.796;2023-06-10T03:16:46;13.13;;;6.15;;
55202;SDS011;41077;52.956;6.796;2023-06-10T03:19:13;8.80;;;5.60;;
55202;SDS011;41077;52.956;6.796;2023-06-10T03:21:43;11.30;;;6.00;;
55202;SDS011;41077;52.956;6.796;2023-06-10T03:24:09;14.35;;;6.10;;
55202;SDS011;41077;52.956;6.796;2023-06-10T03:26:36;12.40;;;6.00;;
55202;SDS011;41077;52.956;6.796;2023-06-10T03:29:02;11.05;;;6.95;;
55202;SDS011;41077;52.956;6.796;2023-06-10T03:31:28;10.35;;;6.28;;
55202;SDS011;41077;52.956;6.796;2023-06-10T03:33:54;10.60;;;6.22;;
55202;SDS011;41077;52.956;6.796;2023-06-10T03:36:20;11.30;;;6.05;;
55202;SDS011;41077;52.956;6.796;2023-06-10T03:38:46;14.07;;;6.60;;
55202;SDS011;41077;52.956;6.796;2023-06-10T03:41:12;18.67;;;6.85;;
55202;SDS011;41077;52.956;6.796;2023-06-10T03:43:38;17.60;;;6.78;;
55202;SDS011;41077;52.956;6.796;2023-06-10T03:46:05;12.15;;;6.45;;
55202;SDS011;41077;52.956;6.796;2023-06-10T03:48:31;11.15;;;6.65;;
55202;SDS011;41077;52.956;6.796;2023-06-10T03:50:58;13.93;;;6.68;;
55202;SDS011;41077;52.956;6.796;2023-06-10T03:53:24;12.32;;;7.05;;
55202;SDS011;41077;52.956;6.796;2023-06-10T03:55:50;11.65;;;6.45;;
55202;SDS011;41077;52.956;6.796;2023-06-10T03:58:16;13.60;;;7.78;;
55202;SDS011;41077;52.956;6.796;2023-06-10T04:00:43;16.88;;;7.07;;
55202;SDS011;41077;52.956;6.796;2023-06-10T04:03:10;16.08;;;7.07;;
55202;SDS011;41077;52.956;6.796;2023-06-10T04:05:40;12.68;;;6.40;;
55202;SDS011;41077;52.956;6.796;2023-06-10T04:08:07;11.30;;;6.70;;
55202;SDS011;41077;52.956;6.796;2023-06-10T04:10:33;16.35;;;6.90;;
55202;SDS011;41077;52.956;6.796;2023-06-10T04:12:59;15.80;;;6.88;;
55202;SDS011;41077;52.956;6.796;2023-06-10T04:15:25;11.13;;;6.88;;
55202;SDS011;41077;52.956;6.796;2023-06-10T04:17:51;14.35;;;7.45;;
55202;SDS011;41077;52.956;6.796;2023-06-10T04:20:17;12.32;;;6.65;;
55202;SDS011;41077;52.956;6.796;2023-06-10T04:22:44;9.52;;;6.13;;
55202;SDS011;41077;52.956;6.796;2023-06-10T04:25:10;11.75;;;6.57;;
55202;SDS011;41077;52.956;6.796;2023-06-10T04:27:36;14.95;;;6.60;;
55202;SDS011;41077;52.956;6.796;2023-06-10T04:30:05;11.57;;;6.43;;
55202;SDS011;41077;52.956;6.796;2023-06-10T04:32:31;14.45;;;7.25;;
55202;SDS011;41077;52.956;6.796;2023-06-10T04:34:57;13.43;;;6.53;;
55202;SDS011;41077;52.956;6.796;2023-06-10T04:37:23;12.40;;;7.85;;
55202;SDS011;41077;52.956;6.796;2023-06-10T04:39:49;15.45;;;7.82;;
55202;SDS011;41077;52.956;6.796;2023-06-10T04:42:15;12.50;;;7.60;;
55202;SDS011;41077;52.956;6.796;2023-06-10T04:44:41;17.08;;;8.48;;
55202;SDS011;41077;52.956;6.796;2023-06-10T04:47:08;13.68;;;7.07;;
55202;SDS011;41077;52.956;6.796;2023-06-10T04:49:34;12.55;;;6.80;;
55202;SDS011;41077;52.956;6.796;2023-06-10T04:52:00;19.40;;;7.88;;
55202;SDS011;41077;52.956;6.796;2023-06-10T04:54:26;17.15;;;7.97;;
55202;SDS011;41077;52.956;6.796;2023-06-10T04:56:52;11.93;;;7.15;;
55202;SDS011;41077;52.956;6.796;2023-06-10T04:59:19;15.48;;;7.30;;
55202;SDS011;41077;52.956;6.796;2023-06-10T05:01:45;12.60;;;7.10;;
55202;SDS011;41077;52.956;6.796;2023-06-10T05:04:11;12.65;;;7.18;;
55202;SDS011;41077;52.956;6.796;2023-06-10T05:06:37;12.68;;;7.43;;
55202;SDS011;41077;52.956;6.796;2023-06-10T05:09:03;13.90;;;7.60;;
55202;SDS011;41077;52.956;6.796;2023-06-10T05:11:30;15.27;;;7.45;;
55202;SDS011;41077;52.956;6.796;2023-06-10T05:13:56;16.27;;;7.30;;
55202;SDS011;41077;52.956;6.796;2023-06-10T05:16:22;15.45;;;8.10;;
55202;SDS011;41077;52.956;6.796;2023-06-10T05:18:48;13.23;;;7.47;;
55202;SDS011;41077;52.956;6.796;2023-06-10T05:21:16;13.05;;;7.60;;
55202;SDS011;41077;52.956;6.796;2023-06-10T05:23:42;16.77;;;7.65;;
55202;SDS011;41077;52.956;6.796;2023-06-10T05:26:08;16.13;;;7.40;;
55202;SDS011;41077;52.956;6.796;2023-06-10T05:28:34;17.55;;;7.88;;
55202;SDS011;41077;52.956;6.796;2023-06-10T05:31:00;19.85;;;7.95;;
55202;SDS011;41077;52.956;6.796;2023-06-10T05:33:26;11.18;;;6.78;;
55202;SDS011;41077;52.956;6.796;2023-06-10T05:35:52;15.82;;;7.28;;
55202;SDS011;41077;52.956;6.796;2023-06-10T05:38:19;13.50;;;7.47;;
55202;SDS011;41077;52.956;6.796;2023-06-10T05:40:45;15.10;;;7.20;;
55202;SDS011;41077;52.956;6.796;2023-06-10T05:43:11;16.42;;;7.97;;
55202;SDS011;41077;52.956;6.796;2023-06-10T05:45:37;14.93;;;6.97;;
55202;SDS011;41077;52.956;6.796;2023-06-10T05:48:05;16.08;;;7.72;;
55202;SDS011;41077;52.956;6.796;2023-06-10T05:50:31;17.25;;;7.80;;
55202;SDS011;41077;52.956;6.796;2023-06-10T05:53:03;14.35;;;7.82;;
55202;SDS011;41077;52.956;6.796;2023-06-10T05:55:29;15.07;;;7.43;;
55202;SDS011;41077;52.956;6.796;2023-06-10T05:57:58;13.70;;;6.80;;
55202;SDS011;41077;52.956;6.796;2023-06-10T06:00:25;9.60;;;6.70;;
55202;SDS011;41077;52.956;6.796;2023-06-10T06:02:52;13.45;;;6.75;;
55202;SDS011;41077;52.956;6.796;2023-06-10T06:05:19;14.10;;;6.68;;
55202;SDS011;41077;52.956;6.796;2023-06-10T06:07:45;13.02;;;6.50;;
55202;SDS011;41077;52.956;6.796;2023-06-10T06:10:11;12.60;;;7.90;;
55202;SDS011;41077;52.956;6.796;2023-06-10T06:12:37;12.32;;;7.15;;
55202;SDS011;41077;52.956;6.796;2023-06-10T06:15:03;13.88;;;7.45;;
55202;SDS011;41077;52.956;6.796;2023-06-10T06:17:29;15.95;;;7.70;;
55202;SDS011;41077;52.956;6.796;2023-06-10T06:19:55;14.27;;;6.07;;
55202;SDS011;41077;52.956;6.796;2023-06-10T06:22:21;14.27;;;7.55;;
55202;SDS011;41077;52.956;6.796;2023-06-10T06:24:47;14.13;;;7.60;;
55202;SDS011;41077;52.956;6.796;2023-06-10T06:27:14;11.73;;;6.82;;
55202;SDS011;41077;52.956;6.796;2023-06-10T06:29:40;11.20;;;7.20;;
55202;SDS011;41077;52.956;6.796;2023-06-10T06:32:06;13.65;;;6.93;;
55202;SDS011;41077;52.956;6.796;2023-06-10T06:34:33;12.15;;;6.93;;
55202;SDS011;41077;52.956;6.796;2023-06-10T06:36:59;18.67;;;7.43;;
55202;SDS011;41077;52.956;6.796;2023-06-10T06:39:24;14.65;;;7.07;;
55202;SDS011;41077;52.956;6.796;2023-06-10T06:41:50;13.13;;;7.00;;
55202;SDS011;41077;52.956;6.796;2023-06-10T06:44:16;16.23;;;6.80;;
55202;SDS011;41077;52.956;6.796;2023-06-10T06:46:42;12.98;;;7.65;;
55202;SDS011;41077;52.956;6.796;2023-06-10T06:49:08;15.75;;;7.60;;
55202;SDS011;41077;52.956;6.796;2023-06-10T06:51:34;15.50;;;7.97;;
55202;SDS011;41077;52.956;6.796;2023-06-10T06:54:00;13.93;;;7.97;;
55202;SDS011;41077;52.956;6.796;2023-06-10T06:56:26;11.25;;;7.03;;
55202;SDS011;41077;52.956;6.796;2023-06-10T06:58:53;13.32;;;7.70;;
55202;SDS011;41077;52.956;6.796;2023-06-10T07:01:19;15.70;;;9.73;;
55202;SDS011;41077;52.956;6.796;2023-06-10T07:03:45;13.63;;;8.07;;
55202;SDS011;41077;52.956;6.796;2023-06-10T07:06:12;15.93;;;8.82;;
55202;SDS011;41077;52.956;6.796;2023-06-10T07:08:38;14.90;;;7.72;;
55202;SDS011;41077;52.956;6.796;2023-06-10T07:11:04;13.07;;;7.82;;
55202;SDS011;41077;52.956;6.796;2023-06-10T07:13:30;15.27;;;8.05;;
55202;SDS011;41077;52.956;6.796;2023-06-10T07:15:55;16.55;;;6.85;;
55202;SDS011;41077;52.956;6.796;2023-06-10T07:18:21;11.50;;;7.20;;
55202;SDS011;41077;52.956;6.796;2023-06-10T07:20:46;17.92;;;7.30;;
55202;SDS011;41077;52.956;6.796;2023-06-10T07:23:12;14.93;;;8.18;;
55202;SDS011;41077;52.956;6.796;2023-06-10T07:25:38;10.27;;;6.55;;
55202;SDS011;41077;52.956;6.796;2023-06-10T07:28:03;12.50;;;7.05;;
55202;SDS011;41077;52.956;6.796;2023-06-10T07:30:29;16.83;;;7.07;;
55202;SDS011;41077;52.956;6.796;2023-06-10T07:32:55;12.80;;;7.65;;
55202;SDS011;41077;52.956;6.796;2023-06-10T07:35:21;16.58;;;6.53;;
55202;SDS011;41077;52.956;6.796;2023-06-10T07:37:46;13.35;;;6.60;;
55202;SDS011;41077;52.956;6.796;2023-06-10T07:40:12;11.50;;;6.00;;
55202;SDS011;41077;52.956;6.796;2023-06-10T07:42:38;12.10;;;6.38;;
55202;SDS011;41077;52.956;6.796;2023-06-10T07:45:04;11.93;;;6.00;;
55202;SDS011;41077;52.956;6.796;2023-06-10T07:47:30;9.65;;;6.15;;
55202;SDS011;41077;52.956;6.796;2023-06-10T07:49:58;12.77;;;6.82;;
55202;SDS011;41077;52.956;6.796;2023-06-10T07:52:24;14.30;;;6.47;;
55202;SDS011;41077;52.956;6.796;2023-06-10T07:54:50;9.55;;;5.78;;
55202;SDS011;41077;52.956;6.796;2023-06-10T07:57:17;8.80;;;6.07;;
55202;SDS011;41077;52.956;6.796;2023-06-10T07:59:44;15.20;;;6.28;;
55202;SDS011;41077;52.956;6.796;2023-06-10T08:02:09;10.15;;;5.55;;
55202;SDS011;41077;52.956;6.796;2023-06-10T08:04:35;15.60;;;6.68;;
55202;SDS011;41077;52.956;6.796;2023-06-10T08:07:01;11.20;;;5.45;;
55202;SDS011;41077;52.956;6.796;2023-06-10T08:09:27;8.95;;;5.35;;
55202;SDS011;41077;52.956;6.796;2023-06-10T08:11:53;8.60;;;5.63;;
55202;SDS011;41077;52.956;6.796;2023-06-10T08:14:20;8.27;;;5.13;;
55202;SDS011;41077;52.956;6.796;2023-06-10T08:16:46;11.00;;;5.25;;
55202;SDS011;41077;52.956;6.796;2023-06-10T08:19:12;7.78;;;5.85;;
55202;SDS011;41077;52.956;6.796;2023-06-10T08:21:38;8.38;;;5.32;;
55202;SDS011;41077;52.956;6.796;2023-06-10T08:24:05;10.73;;;5.15;;
55202;SDS011;41077;52.956;6.796;2023-06-10T08:26:32;8.80;;;5.40;;
55202;SDS011;41077;52.956;6.796;2023-06-10T08:28:58;9.63;;;5.22;;
55202;SDS011;41077;52.956;6.796;2023-06-10T08:31:24;8.93;;;5.63;;
55202;SDS011;41077;52.956;6.796;2023-06-10T08:33:49;7.75;;;5.88;;
55202;SDS011;41077;52.956;6.796;2023-06-10T08:36:15;9.00;;;4.80;;
55202;SDS011;41077;52.956;6.796;2023-06-10T08:38:41;10.85;;;6.10;;
55202;SDS011;41077;52.956;6.796;2023-06-10T08:41:06;8.82;;;4.97;;
55202;SDS011;41077;52.956;6.796;2023-06-10T08:46:11;9.95;;;4.55;;
55202;SDS011;41077;52.956;6.796;2023-06-10T08:48:41;10.27;;;4.50;;
55202;SDS011;41077;52.956;6.796;2023-06-10T08:51:08;11.65;;;4.68;;
55202;SDS011;41077;52.956;6.796;2023-06-10T08:53:36;11.05;;;4.50;;
55202;SDS011;41077;52.956;6.796;2023-06-10T08:56:09;11.43;;;4.22;;
55202;SDS011;41077;52.956;6.796;2023-06-10T08:58:35;9.90;;;4.70;;
55202;SDS011;41077;52.956;6.796;2023-06-10T09:01:07;10.75;;;4.18;;
55202;SDS011;41077;52.956;6.796;2023-06-10T09:03:34;9.02;;;4.78;;
55202;SDS011;41077;52.956;6.796;2023-06-10T09:06:04;7.25;;;4.40;;
55202;SDS011;41077;52.956;6.796;2023-06-10T09:08:31;6.40;;;4.25;;
55202;SDS011;41077;52.956;6.796;2023-06-10T09:10:58;7.97;;;4.32;;
55202;SDS011;41077;52.956;6.796;2023-06-10T09:13:24;6.93;;;4.10;;
55202;SDS011;41077;52.956;6.796;2023-06-10T09:15:50;7.60;;;4.82;;
55202;SDS011;41077;52.956;6.796;2023-06-10T09:18:16;7.65;;;4.38;;
55202;SDS011;41077;52.956;6.796;2023-06-10T09:20:42;10.95;;;4.72;;
55202;SDS011;41077;52.956;6.796;2023-06-10T09:23:08;9.00;;;4.13;;
55202;SDS011;41077;52.956;6.796;2023-06-10T09:25:38;7.75;;;4.00;;
55202;SDS011;41077;52.956;6.796;2023-06-10T09:28:04;7.63;;;4.20;;
55202;SDS011;41077;52.956;6.796;2023-06-10T09:30:37;12.65;;;4.47;;
55202;SDS011;41077;52.956;6.796;2023-06-10T09:33:03;11.88;;;4.43;;
55202;SDS011;41077;52.956;6.796;2023-06-10T09:35:44;6.82;;;3.97;;
55202;SDS011;41077;52.956;6.796;2023-06-10T09:38:11;9.48;;;4.50;;
55202;SDS011;41077;52.956;6.796;2023-06-10T09:40:50;7.18;;;3.75;;
55202;SDS011;41077;52.956;6.796;2023-06-10T09:43:17;8.80;;;4.40;;
55202;SDS011;41077;52.956;6.796;2023-06-10T09:45:43;8.15;;;4.25;;
55202;SDS011;41077;52.956;6.796;2023-06-10T09:48:08;8.32;;;4.32;;
55202;SDS011;41077;52.956;6.796;2023-06-10T09:50:34;10.70;;;4.30;;
55202;SDS011;41077;52.956;6.796;2023-06-10T09:53:06;8.05;;;3.92;;
55202;SDS011;41077;52.956;6.796;2023-06-10T09:55:33;6.13;;;3.78;;
55202;SDS011;41077;52.956;6.796;2023-06-10T09:57:59;8.52;;;4.50;;
55202;SDS011;41077;52.956;6.796;2023-06-10T10:00:25;7.57;;;3.53;;
55202;SDS011;41077;52.956;6.796;2023-06-10T10:02:51;6.72;;;3.50;;
55202;SDS011;41077;52.956;6.796;2023-06-10T10:05:19;8.85;;;3.70;;
55202;SDS011;41077;52.956;6.796;2023-06-10T10:07:46;8.32;;;3.30;;
55202;SDS011;41077;52.956;6.796;2023-06-10T10:10:13;7.45;;;3.72;;
55202;SDS011;41077;52.956;6.796;2023-06-10T10:12:41;8.98;;;4.03;;
55202;SDS011;41077;52.956;6.796;2023-06-10T10:15:07;5.22;;;3.22;;
55202;SDS011;41077;52.956;6.796;2023-06-10T10:17:44;9.73;;;3.97;;
55202;SDS011;41077;52.956;6.796;2023-06-10T10:20:14;6.80;;;3.45;;
55202;SDS011;41077;52.956;6.796;2023-06-10T10:22:45;9.57;;;3.20;;
55202;SDS011;41077;52.956;6.796;2023-06-10T10:25:16;6.72;;;3.38;;
55202;SDS011;41077;52.956;6.796;2023-06-10T10:28:20;7.32;;;3.80;;
55202;SDS011;41077;52.956;6.796;2023-06-10T10:30:49;7.75;;;3.90;;
55202;SDS011;41077;52.956;6.796;2023-06-10T10:36:00;9.98;;;3.95;;
55202;SDS011;41077;52.956;6.796;2023-06-10T10:38:26;9.23;;;3.92;;
55202;SDS011;41077;52.956;6.796;2023-06-10T10:40:53;6.82;;;3.03;;
55202;SDS011;41077;52.956;6.796;2023-06-10T10:43:24;4.55;;;3.15;;
55202;SDS011;41077;52.956;6.796;2023-06-10T10:46:01;6.18;;;3.63;;
55202;SDS011;41077;52.956;6.796;2023-06-10T10:48:36;9.55;;;3.00;;
55202;SDS011;41077;52.956;6.796;2023-06-10T10:51:03;8.23;;;3.58;;
55202;SDS011;41077;52.956;6.796;2023-06-10T10:53:29;5.53;;;3.15;;
55202;SDS011;41077;52.956;6.796;2023-06-10T10:58:32;4.85;;;2.80;;
55202;SDS011;41077;52.956;6.796;2023-06-10T11:00:58;4.97;;;2.85;;
55202;SDS011;41077;52.956;6.796;2023-06-10T11:03:27;5.07;;;2.78;;
55202;SDS011;41077;52.956;6.796;2023-06-10T11:05:56;6.43;;;3.20;;
55202;SDS011;41077;52.956;6.796;2023-06-10T11:10:58;6.53;;;3.03;;
55202;SDS011;41077;52.956;6.796;2023-06-10T11:13:25;4.85;;;2.88;;
55202;SDS011;41077;52.956;6.796;2023-06-10T11:15:52;9.02;;;3.15;;
55202;SDS011;41077;52.956;6.796;2023-06-10T11:18:34;5.25;;;3.17;;
55202;SDS011;41077;52.956;6.796;2023-06-10T11:21:04;8.90;;;3.10;;
55202;SDS011;41077;52.956;6.796;2023-06-10T11:23:32;9.63;;;3.30;;
55202;SDS011;41077;52.956;6.796;2023-06-10T11:31:19;5.07;;;3.33;;
55202;SDS011;41077;52.956;6.796;2023-06-10T11:36:31;7.90;;;3.17;;
55202;SDS011;41077;52.956;6.796;2023-06-10T11:38:59;8.15;;;3.03;;
55202;SDS011;41077;52.956;6.796;2023-06-10T11:41:29;6.78;;;3.03;;
55202;SDS011;41077;52.956;6.796;2023-06-10T11:44:03;5.63;;;3.05;;
55202;SDS011;41077;52.956;6.796;2023-06-10T11:46:33;8.07;;;3.63;;
55202;SDS011;41077;52.956;6.796;2023-06-10T11:49:00;8.32;;;3.88;;
55202;SDS011;41077;52.956;6.796;2023-06-10T11:51:28;5.55;;;2.75;;
55202;SDS011;41077;52.956;6.796;2023-06-10T11:53:57;5.35;;;2.58;;
55202;SDS011;41077;52.956;6.796;2023-06-10T11:56:23;8.73;;;2.85;;
55202;SDS011;41077;52.956;6.796;2023-06-10T11:59:01;6.00;;;2.35;;
55202;SDS011;41077;52.956;6.796;2023-06-10T12:01:36;4.10;;;2.60;;
55202;SDS011;41077;52.956;6.796;2023-06-10T12:04:03;8.35;;;2.83;;
55202;SDS011;41077;52.956;6.796;2023-06-10T12:09:28;5.82;;;2.55;;
55202;SDS011;41077;52.956;6.796;2023-06-10T12:11:58;4.72;;;2.35;;
55202;SDS011;41077;52.956;6.796;2023-06-10T12:19:56;5.10;;;2.92;;
55202;SDS011;41077;52.956;6.796;2023-06-10T12:22:22;4.80;;;2.75;;
55202;SDS011;41077;52.956;6.796;2023-06-10T12:24:59;4.13;;;2.55;;
55202;SDS011;41077;52.956;6.796;2023-06-10T12:27:32;3.83;;;2.20;;
55202;SDS011;41077;52.956;6.796;2023-06-10T12:30:00;7.38;;;2.20;;
55202;SDS011;41077;52.956;6.796;2023-06-10T12:35:06;9.52;;;2.72;;
55202;SDS011;41077;52.956;6.796;2023-06-10T12:37:33;15.43;;;3.30;;
55202;SDS011;41077;52.956;6.796;2023-06-10T12:40:00;6.38;;;2.40;;
55202;SDS011;41077;52.956;6.796;2023-06-10T12:42:28;3.50;;;1.83;;
55202;SDS011;41077;52.956;6.796;2023-06-10T12:45:00;3.55;;;2.15;;
55202;SDS011;41077;52.956;6.796;2023-06-10T12:47:30;4.40;;;2.25;;
55202;SDS011;41077;52.956;6.796;2023-06-10T12:52:26;3.92;;;2.10;;
55202;SDS011;41077;52.956;6.796;2023-06-10T12:54:55;7.75;;;2.13;;
55202;SDS011;41077;52.956;6.796;2023-06-10T12:57:22;5.75;;;2.15;;
55202;SDS011;41077;52.956;6.796;2023-06-10T12:59:48;4.78;;;2.00;;
55202;SDS011;41077;52.956;6.796;2023-06-10T13:02:22;3.63;;;2.03;;
55202;SDS011;41077;52.956;6.796;2023-06-10T13:04:49;4.35;;;2.30;;
55202;SDS011;41077;52.956;6.796;2023-06-10T13:07:16;3.97;;;2.20;;
55202;SDS011;41077;52.956;6.796;2023-06-10T13:09:42;8.07;;;2.55;;
55202;SDS011;41077;52.956;6.796;2023-06-10T13:12:08;3.63;;;2.28;;
55202;SDS011;41077;52.956;6.796;2023-06-10T13:14:35;6.70;;;2.17;;
55202;SDS011;41077;52.956;6.796;2023-06-10T13:17:03;7.53;;;2.25;;
55202;SDS011;41077;52.956;6.796;2023-06-10T13:19:31;5.28;;;2.47;;
55202;SDS011;41077;52.956;6.796;2023-06-10T13:21:58;3.30;;;2.08;;
55202;SDS011;41077;52.956;6.796;2023-06-10T13:24:24;4.32;;;2.03;;
55202;SDS011;41077;52.956;6.796;2023-06-10T13:26:50;6.70;;;2.22;;
55202;SDS011;41077;52.956;6.796;2023-06-10T13:29:15;6.75;;;2.67;;
55202;SDS011;41077;52.956;6.796;2023-06-10T13:31:41;8.48;;;2.13;;
55202;SDS011;41077;52.956;6.796;2023-06-10T13:34:07;10.10;;;2.63;;
55202;SDS011;41077;52.956;6.796;2023-06-10T13:36:33;6.30;;;2.03;;
55202;SDS011;41077;52.956;6.796;2023-06-10T13:38:58;6.47;;;3.08;;
55202;SDS011;41077;52.956;6.796;2023-06-10T13:41:24;7.97;;;3.13;;
55202;SDS011;41077;52.956;6.796;2023-06-10T13:43:52;4.95;;;2.10;;
55202;SDS011;41077;52.956;6.796;2023-06-10T13:46:18;7.32;;;2.28;;
55202;SDS011;41077;52.956;6.796;2023-06-10T13:48:46;3.75;;;2.10;;
55202;SDS011;41077;52.956;6.796;2023-06-10T13:51:12;5.55;;;2.58;;
55202;SDS011;41077;52.956;6.796;2023-06-10T13:53:37;3.40;;;2.20;;
55202;SDS011;41077;52.956;6.796;2023-06-10T13:56:03;5.75;;;2.53;;
55202;SDS011;41077;52.956;6.796;2023-06-10T13:58:29;3.85;;;2.15;;
55202;SDS011;41077;52.956;6.796;2023-06-10T14:00:55;6.68;;;2.05;;
55202;SDS011;41077;52.956;6.796;2023-06-10T14:03:20;3.08;;;1.83;;
55202;SDS011;41077;52.956;6.796;2023-06-10T14:05:46;5.47;;;1.88;;
55202;SDS011;41077;52.956;6.796;2023-06-10T14:08:11;5.22;;;2.17;;
55202;SDS011;41077;52.956;6.796;2023-06-10T14:10:38;4.55;;;2.15;;
55202;SDS011;41077;52.956;6.796;2023-06-10T14:13:04;3.45;;;2.05;;
55202;SDS011;41077;52.956;6.796;2023-06-10T14:15:30;5.80;;;2.33;;
55202;SDS011;41077;52.956;6.796;2023-06-10T14:17:57;5.85;;;2.35;;
55202;SDS011;41077;52.956;6.796;2023-06-10T14:20:23;6.60;;;2.17;;
55202;SDS011;41077;52.956;6.796;2023-06-10T14:22:50;8.52;;;2.20;;
55202;SDS011;41077;52.956;6.796;2023-06-10T14:25:16;7.00;;;2.30;;
55202;SDS011;41077;52.956;6.796;2023-06-10T14:27:42;4.10;;;2.10;;
55202;SDS011;41077;52.956;6.796;2023-06-10T14:30:08;8.18;;;2.58;;
55202;SDS011;41077;52.956;6.796;2023-06-10T14:32:34;5.53;;;2.20;;
55202;SDS011;41077;52.956;6.796;2023-06-10T14:35:00;7.30;;;2.25;;
55202;SDS011;41077;52.956;6.796;2023-06-10T14:37:25;3.47;;;1.92;;
55202;SDS011;41077;52.956;6.796;2023-06-10T14:39:51;3.22;;;2.08;;
55202;SDS011;41077;52.956;6.796;2023-06-10T14:42:17;7.88;;;2.30;;
55202;SDS011;41077;52.956;6.796;2023-06-10T14:44:43;2.42;;;1.80;;
55202;SDS011;41077;52.956;6.796;2023-06-10T14:47:09;2.65;;;1.85;;
55202;SDS011;41077;52.956;6.796;2023-06-10T14:49:35;5.35;;;2.67;;
55202;SDS011;41077;52.956;6.796;2023-06-10T14:52:01;3.83;;;2.00;;
55202;SDS011;41077;52.956;6.796;2023-06-10T14:54:28;4.72;;;2.00;;
55202;SDS011;41077;52.956;6.796;2023-06-10T14:56:54;5.07;;;1.95;;
55202;SDS011;41077;52.956;6.796;2023-06-10T14:59:20;5.10;;;2.35;;
55202;SDS011;41077;52.956;6.796;2023-06-10T15:01:46;3.78;;;2.72;;
55202;SDS011;41077;52.956;6.796;2023-06-10T15:04:12;4.10;;;2.25;;
55202;SDS011;41077;52.956;6.796;2023-06-10T15:06:38;5.45;;;2.00;;
55202;SDS011;41077;52.956;6.796;2023-06-10T15:09:04;5.18;;;2.60;;
55202;SDS011;41077;52.956;6.796;2023-06-10T15:11:30;3.15;;;2.22;;
55202;SDS011;41077;52.956;6.796;2023-06-10T15:13:56;3.95;;;2.33;;
55202;SDS011;41077;52.956;6.796;2023-06-10T15:16:23;6.00;;;2.72;;
55202;SDS011;41077;52.956;6.796;2023-06-10T15:18:49;3.40;;;2.10;;